Denver, Colorado
Current Conditions -  °F | °C
As of 12:58 PM on Saturday 25 Oct 2014 (Local Time) from KBKF Reporting Station
Few Clouds Few Clouds  
Wind Chill: 76°   Ceiling: Unl
Heat Index: 76°   Visibility: 10mi
Dew Point: 19°   Wind: 9mph
Humidity: 12%   Direction: 140°SE
Pressure: 30.2"   Gusts: NA
Location:  39.74°N, 104.99°W
Report Text: KBKF 251858Z 14008KT 10SM FEW220 25/M07 A3020 RMK AO2A SLP164 T02451071
Loading
Personal Weather Stations






























Interactive Weather Map
Tropical Storm Tracking
New forecast layout! Learn more

10-Day Weather Forecast

Advertisements
Track Severe Weather on mobile